sensor_id;sensor_type;location;lat;lon;timestamp;temperature;humidity
67275;DHT22;55463;52.324;5.122;2023-04-05T00:01:06;3.85;78.02
67275;DHT22;55463;52.324;5.122;2023-04-05T00:03:32;3.82;77.89
67275;DHT22;55463;52.324;5.122;2023-04-05T00:05:58;3.81;78.62
67275;DHT22;55463;52.324;5.122;2023-04-05T00:08:26;3.81;78.66
67275;DHT22;55463;52.324;5.122;2023-04-05T00:10:53;3.74;78.75
67275;DHT22;55463;52.324;5.122;2023-04-05T00:13:19;3.72;79.10
67275;DHT22;55463;52.324;5.122;2023-04-05T00:15:48;3.69;79.08
67275;DHT22;55463;52.324;5.122;2023-04-05T00:18:13;3.65;78.83
67275;DHT22;55463;52.324;5.122;2023-04-05T00:20:52;3.61;79.20
67275;DHT22;55463;52.324;5.122;2023-04-05T00:23:18;3.59;79.49
67275;DHT22;55463;52.324;5.122;2023-04-05T00:25:45;3.55;79.25
67275;DHT22;55463;52.324;5.122;2023-04-05T00:28:11;3.52;79.52
67275;DHT22;55463;52.324;5.122;2023-04-05T00:30:36;3.52;80.44
67275;DHT22;55463;52.324;5.122;2023-04-05T00:33:02;3.45;80.03
67275;DHT22;55463;52.324;5.122;2023-04-05T00:35:28;3.45;80.06
67275;DHT22;55463;52.324;5.122;2023-04-05T00:37:54;3.40;80.38
67275;DHT22;55463;52.324;5.122;2023-04-05T00:40:20;3.35;80.18
67275;DHT22;55463;52.324;5.122;2023-04-05T00:42:45;3.27;80.50
67275;DHT22;55463;52.324;5.122;2023-04-05T00:45:12;3.23;79.90
67275;DHT22;55463;52.324;5.122;2023-04-05T00:47:40;3.17;80.11
67275;DHT22;55463;52.324;5.122;2023-04-05T00:50:06;3.13;79.67
67275;DHT22;55463;52.324;5.122;2023-04-05T00:52:34;3.06;80.33
67275;DHT22;55463;52.324;5.122;2023-04-05T00:54:59;3.00;80.56
67275;DHT22;55463;52.324;5.122;2023-04-05T00:57:25;3.00;81.59
67275;DHT22;55463;52.324;5.122;2023-04-05T00:59:51;2.95;81.13
67275;DHT22;55463;52.324;5.122;2023-04-05T01:02:27;2.93;82.11
67275;DHT22;55463;52.324;5.122;2023-04-05T01:05:02;2.86;81.49
67275;DHT22;55463;52.324;5.122;2023-04-05T01:07:37;2.86;81.52
67275;DHT22;55463;52.324;5.122;2023-04-05T01:10:08;2.81;81.71
67275;DHT22;55463;52.324;5.122;2023-04-05T01:12:34;2.77;81.80
67275;DHT22;55463;52.324;5.122;2023-04-05T01:15:01;2.71;82.49
67275;DHT22;55463;52.324;5.122;2023-04-05T01:17:29;2.71;83.50
67275;DHT22;55463;52.324;5.122;2023-04-05T01:20:02;2.71;84.61
67275;DHT22;55463;52.324;5.122;2023-04-05T01:25:42;2.68;83.97
67275;DHT22;55463;52.324;5.122;2023-04-05T01:31:16;2.61;83.92
67275;DHT22;55463;52.324;5.122;2023-04-05T01:33:54;2.62;83.72
67275;DHT22;55463;52.324;5.122;2023-04-05T01:36:53;2.60;84.07
67275;DHT22;55463;52.324;5.122;2023-04-05T01:39:34;2.60;84.86
67275;DHT22;55463;52.324;5.122;2023-04-05T01:42:02;2.55;85.28
67275;DHT22;55463;52.324;5.122;2023-04-05T01:44:28;2.52;84.50
67275;DHT22;55463;52.324;5.122;2023-04-05T01:46:53;2.51;84.27
67275;DHT22;55463;52.324;5.122;2023-04-05T01:49:19;2.51;85.03
67275;DHT22;55463;52.324;5.122;2023-04-05T01:51:45;2.43;83.76
67275;DHT22;55463;52.324;5.122;2023-04-05T01:54:10;2.38;83.86
67275;DHT22;55463;52.324;5.122;2023-04-05T01:56:36;2.37;85.92
67275;DHT22;55463;52.324;5.122;2023-04-05T01:59:01;2.36;86.10
67275;DHT22;55463;52.324;5.122;2023-04-05T02:01:26;2.34;85.48
67275;DHT22;55463;52.324;5.122;2023-04-05T02:03:52;2.34;86.31
67275;DHT22;55463;52.324;5.122;2023-04-05T02:06:17;2.32;86.55
67275;DHT22;55463;52.324;5.122;2023-04-05T02:08:42;2.34;87.37
67275;DHT22;55463;52.324;5.122;2023-04-05T02:11:08;2.38;87.72
67275;DHT22;55463;52.324;5.122;2023-04-05T02:13:33;2.37;87.79
67275;DHT22;55463;52.324;5.122;2023-04-05T02:15:59;2.37;87.29
67275;DHT22;55463;52.324;5.122;2023-04-05T02:18:24;2.38;86.91
67275;DHT22;55463;52.324;5.122;2023-04-05T02:21:05;2.41;87.84
67275;DHT22;55463;52.324;5.122;2023-04-05T02:23:58;2.45;87.94
67275;DHT22;55463;52.324;5.122;2023-04-05T02:26:23;2.47;88.23
67275;DHT22;55463;52.324;5.122;2023-04-05T02:28:49;2.48;88.13
67275;DHT22;55463;52.324;5.122;2023-04-05T02:31:14;2.47;88.45
67275;DHT22;55463;52.324;5.122;2023-04-05T02:33:40;2.48;87.86
67275;DHT22;55463;52.324;5.122;2023-04-05T02:36:07;2.50;88.62
67275;DHT22;55463;52.324;5.122;2023-04-05T02:38:34;2.51;88.09
67275;DHT22;55463;52.324;5.122;2023-04-05T02:40:59;2.55;88.60
67275;DHT22;55463;52.324;5.122;2023-04-05T02:43:25;2.57;88.46
67275;DHT22;55463;52.324;5.122;2023-04-05T02:45:51;2.58;88.44
67275;DHT22;55463;52.324;5.122;2023-04-05T02:48:16;2.62;88.00
67275;DHT22;55463;52.324;5.122;2023-04-05T02:50:49;2.66;87.97
67275;DHT22;55463;52.324;5.122;2023-04-05T02:53:15;2.65;88.12
67275;DHT22;55463;52.324;5.122;2023-04-05T02:55:41;2.64;88.04
67275;DHT22;55463;52.324;5.122;2023-04-05T02:58:07;2.65;88.86
67275;DHT22;55463;52.324;5.122;2023-04-05T03:00:32;2.65;89.01
67275;DHT22;55463;52.324;5.122;2023-04-05T03:02:58;2.65;87.77
67275;DHT22;55463;52.324;5.122;2023-04-05T03:05:23;2.71;88.09
67275;DHT22;55463;52.324;5.122;2023-04-05T03:07:49;2.79;86.61
67275;DHT22;55463;52.324;5.122;2023-04-05T03:10:16;2.84;86.25
67275;DHT22;55463;52.324;5.122;2023-04-05T03:12:46;2.86;85.88
67275;DHT22;55463;52.324;5.122;2023-04-05T03:15:12;2.86;85.13
67275;DHT22;55463;52.324;5.122;2023-04-05T03:17:38;2.85;84.86
67275;DHT22;55463;52.324;5.122;2023-04-05T03:20:04;2.82;84.89
67275;DHT22;55463;52.324;5.122;2023-04-05T03:22:33;2.82;84.81
67275;DHT22;55463;52.324;5.122;2023-04-05T03:24:58;2.82;84.89
67275;DHT22;55463;52.324;5.122;2023-04-05T03:27:25;2.81;85.31
67275;DHT22;55463;52.324;5.122;2023-04-05T03:29:50;2.81;84.63
67275;DHT22;55463;52.324;5.122;2023-04-05T03:32:16;2.82;85.16
67275;DHT22;55463;52.324;5.122;2023-04-05T03:34:41;2.82;85.35
67275;DHT22;55463;52.324;5.122;2023-04-05T03:37:07;2.82;85.04
67275;DHT22;55463;52.324;5.122;2023-04-05T03:39:33;2.82;84.89
67275;DHT22;55463;52.324;5.122;2023-04-05T03:41:58;2.82;84.97
67275;DHT22;55463;52.324;5.122;2023-04-05T03:44:24;2.82;84.56
67275;DHT22;55463;52.324;5.122;2023-04-05T03:46:49;2.84;84.14
67275;DHT22;55463;52.324;5.122;2023-04-05T03:49:14;2.84;84.26
67275;DHT22;55463;52.324;5.122;2023-04-05T03:51:40;2.86;84.10
67275;DHT22;55463;52.324;5.122;2023-04-05T03:54:06;2.85;84.10
67275;DHT22;55463;52.324;5.122;2023-04-05T03:56:31;2.85;84.17
67275;DHT22;55463;52.324;5.122;2023-04-05T03:58:57;2.84;83.72
67275;DHT22;55463;52.324;5.122;2023-04-05T04:01:23;2.86;83.69
67275;DHT22;55463;52.324;5.122;2023-04-05T04:03:48;2.84;83.48
67275;DHT22;55463;52.324;5.122;2023-04-05T04:06:14;2.82;83.38
67275;DHT22;55463;52.324;5.122;2023-04-05T04:08:40;2.82;83.67
67275;DHT22;55463;52.324;5.122;2023-04-05T04:11:05;2.81;83.83
67275;DHT22;55463;52.324;5.122;2023-04-05T04:13:31;2.78;83.45
67275;DHT22;55463;52.324;5.122;2023-04-05T04:15:56;2.77;83.55
67275;DHT22;55463;52.324;5.122;2023-04-05T04:18:22;2.74;83.36
67275;DHT22;55463;52.324;5.122;2023-04-05T04:20:47;2.72;83.32
67275;DHT22;55463;52.324;5.122;2023-04-05T04:23:13;2.69;83.37
67275;DHT22;55463;52.324;5.122;2023-04-05T04:25:38;2.68;83.25
67275;DHT22;55463;52.324;5.122;2023-04-05T04:28:05;2.62;83.50
67275;DHT22;55463;52.324;5.122;2023-04-05T04:30:34;2.60;83.88
67275;DHT22;55463;52.324;5.122;2023-04-05T04:33:03;2.58;83.41
67275;DHT22;55463;52.324;5.122;2023-04-05T04:35:32;2.54;83.53
67275;DHT22;55463;52.324;5.122;2023-04-05T04:38:06;2.54;83.65
67275;DHT22;55463;52.324;5.122;2023-04-05T04:40:37;2.51;83.58
67275;DHT22;55463;52.324;5.122;2023-04-05T04:43:15;2.45;83.67
67275;DHT22;55463;52.324;5.122;2023-04-05T04:45:47;2.47;83.85
67275;DHT22;55463;52.324;5.122;2023-04-05T04:48:13;2.43;83.97
67275;DHT22;55463;52.324;5.122;2023-04-05T04:50:43;2.40;83.88
67275;DHT22;55463;52.324;5.122;2023-04-05T04:53:09;2.37;84.07
67275;DHT22;55463;52.324;5.122;2023-04-05T04:55:35;2.36;84.52
67275;DHT22;55463;52.324;5.122;2023-04-05T04:58:01;2.34;84.55
67275;DHT22;55463;52.324;5.122;2023-04-05T05:00:39;2.33;84.68
67275;DHT22;55463;52.324;5.122;2023-04-05T05:03:06;2.32;84.70
67275;DHT22;55463;52.324;5.122;2023-04-05T05:05:32;2.29;84.79
67275;DHT22;55463;52.324;5.122;2023-04-05T05:07:57;2.26;84.97
67275;DHT22;55463;52.324;5.122;2023-04-05T05:10:23;2.27;84.42
67275;DHT22;55463;52.324;5.122;2023-04-05T05:12:48;2.26;84.76
67275;DHT22;55463;52.324;5.122;2023-04-05T05:15:14;2.24;84.70
67275;DHT22;55463;52.324;5.122;2023-04-05T05:17:39;2.23;84.56
67275;DHT22;55463;52.324;5.122;2023-04-05T05:20:06;2.22;84.79
67275;DHT22;55463;52.324;5.122;2023-04-05T05:22:36;2.22;84.77
67275;DHT22;55463;52.324;5.122;2023-04-05T05:25:02;2.19;85.25
67275;DHT22;55463;52.324;5.122;2023-04-05T05:27:27;2.20;85.14
67275;DHT22;55463;52.324;5.122;2023-04-05T05:29:53;2.22;85.18
67275;DHT22;55463;52.324;5.122;2023-04-05T05:32:19;2.20;85.11
67275;DHT22;55463;52.324;5.122;2023-04-05T05:34:44;2.22;85.36
67275;DHT22;55463;52.324;5.122;2023-04-05T05:37:12;2.23;85.06
67275;DHT22;55463;52.324;5.122;2023-04-05T05:39:38;2.27;85.33
67275;DHT22;55463;52.324;5.122;2023-04-05T05:42:03;2.24;85.56
67275;DHT22;55463;52.324;5.122;2023-04-05T05:44:29;2.24;85.64
67275;DHT22;55463;52.324;5.122;2023-04-05T05:46:55;2.27;85.63
67275;DHT22;55463;52.324;5.122;2023-04-05T05:49:21;2.29;85.56
67275;DHT22;55463;52.324;5.122;2023-04-05T05:51:48;2.32;85.41
67275;DHT22;55463;52.324;5.122;2023-04-05T05:54:15;2.29;85.78
67275;DHT22;55463;52.324;5.122;2023-04-05T05:56:40;2.33;85.66
67275;DHT22;55463;52.324;5.122;2023-04-05T05:59:05;2.36;85.51
67275;DHT22;55463;52.324;5.122;2023-04-05T06:01:31;2.38;85.42
67275;DHT22;55463;52.324;5.122;2023-04-05T06:03:58;2.41;85.40
67275;DHT22;55463;52.324;5.122;2023-04-05T06:06:24;2.41;85.17
67275;DHT22;55463;52.324;5.122;2023-04-05T06:08:57;2.48;84.86
67275;DHT22;55463;52.324;5.122;2023-04-05T06:11:22;2.50;84.18
67275;DHT22;55463;52.324;5.122;2023-04-05T06:13:49;2.52;83.73
67275;DHT22;55463;52.324;5.122;2023-04-05T06:16:20;2.57;83.25
67275;DHT22;55463;52.324;5.122;2023-04-05T06:18:45;2.58;83.27
67275;DHT22;55463;52.324;5.122;2023-04-05T06:21:11;2.62;83.19
67275;DHT22;55463;52.324;5.122;2023-04-05T06:23:37;2.65;82.76
67275;DHT22;55463;52.324;5.122;2023-04-05T06:26:03;2.71;82.72
67275;DHT22;55463;52.324;5.122;2023-04-05T06:28:29;2.74;82.58
67275;DHT22;55463;52.324;5.122;2023-04-05T06:31:05;2.81;82.36
67275;DHT22;55463;52.324;5.122;2023-04-05T06:33:30;2.86;82.21
67275;DHT22;55463;52.324;5.122;2023-04-05T06:35:56;2.92;81.78
67275;DHT22;55463;52.324;5.122;2023-04-05T06:38:21;2.95;81.75
67275;DHT22;55463;52.324;5.122;2023-04-05T06:40:52;2.99;81.87
67275;DHT22;55463;52.324;5.122;2023-04-05T06:43:29;3.02;81.46
67275;DHT22;55463;52.324;5.122;2023-04-05T06:45:58;3.06;81.55
67275;DHT22;55463;52.324;5.122;2023-04-05T06:48:23;3.10;81.46
67275;DHT22;55463;52.324;5.122;2023-04-05T06:50:59;3.16;81.36
67275;DHT22;55463;52.324;5.122;2023-04-05T06:53:26;3.27;81.46
67275;DHT22;55463;52.324;5.122;2023-04-05T06:55:55;3.31;81.07
67275;DHT22;55463;52.324;5.122;2023-04-05T06:58:22;3.37;81.06
67275;DHT22;55463;52.324;5.122;2023-04-05T07:00:48;3.44;80.78
67275;DHT22;55463;52.324;5.122;2023-04-05T07:03:13;3.52;80.98
67275;DHT22;55463;52.324;5.122;2023-04-05T07:05:39;3.64;80.74
67275;DHT22;55463;52.324;5.122;2023-04-05T07:08:04;3.74;80.53
67275;DHT22;55463;52.324;5.122;2023-04-05T07:10:29;3.82;80.79
67275;DHT22;55463;52.324;5.122;2023-04-05T07:12:55;3.95;80.19
67275;DHT22;55463;52.324;5.122;2023-04-05T07:15:20;4.10;80.86
67275;DHT22;55463;52.324;5.122;2023-04-05T07:17:46;4.44;79.73
67275;DHT22;55463;52.324;5.122;2023-04-05T07:20:11;4.90;79.89
67275;DHT22;55463;52.324;5.122;2023-04-05T07:22:37;5.45;80.31
67275;DHT22;55463;52.324;5.122;2023-04-05T07:25:02;5.92;78.22
67275;DHT22;55463;52.324;5.122;2023-04-05T07:27:29;6.35;76.25
67275;DHT22;55463;52.324;5.122;2023-04-05T07:29:57;6.86;75.68
67275;DHT22;55463;52.324;5.122;2023-04-05T07:32:22;7.42;75.37
67275;DHT22;55463;52.324;5.122;2023-04-05T07:34:47;7.90;73.95
67275;DHT22;55463;52.324;5.122;2023-04-05T07:37:13;8.37;70.06
67275;DHT22;55463;52.324;5.122;2023-04-05T07:39:38;8.90;70.91
67275;DHT22;55463;52.324;5.122;2023-04-05T07:42:04;9.36;69.36
67275;DHT22;55463;52.324;5.122;2023-04-05T07:44:30;9.79;68.87
67275;DHT22;55463;52.324;5.122;2023-04-05T07:46:55;10.21;67.09
67275;DHT22;55463;52.324;5.122;2023-04-05T07:49:25;10.46;65.93
67275;DHT22;55463;52.324;5.122;2023-04-05T07:51:53;10.85;65.99
67275;DHT22;55463;52.324;5.122;2023-04-05T07:54:19;11.25;64.17
67275;DHT22;55463;52.324;5.122;2023-04-05T07:56:45;11.47;62.66
67275;DHT22;55463;52.324;5.122;2023-04-05T07:59:11;11.94;62.31
67275;DHT22;55463;52.324;5.122;2023-04-05T08:01:37;12.32;61.52
67275;DHT22;55463;52.324;5.122;2023-04-05T08:04:02;12.57;60.02
67275;DHT22;55463;52.324;5.122;2023-04-05T08:06:27;13.15;58.48
67275;DHT22;55463;52.324;5.122;2023-04-05T08:08:53;13.55;56.39
67275;DHT22;55463;52.324;5.122;2023-04-05T08:11:18;13.60;55.46
67275;DHT22;55463;52.324;5.122;2023-04-05T08:13:43;13.67;52.96
67275;DHT22;55463;52.324;5.122;2023-04-05T08:16:10;13.94;53.08
67275;DHT22;55463;52.324;5.122;2023-04-05T08:18:35;14.32;51.66
67275;DHT22;55463;52.324;5.122;2023-04-05T08:21:01;14.26;51.98
67275;DHT22;55463;52.324;5.122;2023-04-05T08:23:26;14.29;52.70
67275;DHT22;55463;52.324;5.122;2023-04-05T08:25:52;14.83;54.16
67275;DHT22;55463;52.324;5.122;2023-04-05T08:28:18;15.03;53.00
67275;DHT22;55463;52.324;5.122;2023-04-05T08:30:43;15.21;50.89
67275;DHT22;55463;52.324;5.122;2023-04-05T08:33:10;15.63;47.40
67275;DHT22;55463;52.324;5.122;2023-04-05T08:35:36;15.80;45.46
67275;DHT22;55463;52.324;5.122;2023-04-05T08:38:02;16.18;47.34
67275;DHT22;55463;52.324;5.122;2023-04-05T08:40:46;16.46;47.90
67275;DHT22;55463;52.324;5.122;2023-04-05T08:46:00;16.69;48.56
67275;DHT22;55463;52.324;5.122;2023-04-05T08:48:26;17.04;48.12
67275;DHT22;55463;52.324;5.122;2023-04-05T08:50:55;17.50;45.73
67275;DHT22;55463;52.324;5.122;2023-04-05T08:53:21;17.28;45.10
67275;DHT22;55463;52.324;5.122;2023-04-05T08:55:50;17.50;44.98
67275;DHT22;55463;52.324;5.122;2023-04-05T08:58:19;17.38;45.27
67275;DHT22;55463;52.324;5.122;2023-04-05T09:00:46;17.63;45.52
67275;DHT22;55463;52.324;5.122;2023-04-05T09:03:15;17.98;44.74
67275;DHT22;55463;52.324;5.122;2023-04-05T09:05:44;18.15;43.75
67275;DHT22;55463;52.324;5.122;2023-04-05T09:08:12;17.94;42.36
67275;DHT22;55463;52.324;5.122;2023-04-05T09:10:38;18.28;43.42
67275;DHT22;55463;52.324;5.122;2023-04-05T09:13:03;18.41;43.20
67275;DHT22;55463;52.324;5.122;2023-04-05T09:15:29;18.73;41.87
67275;DHT22;55463;52.324;5.122;2023-04-05T09:17:55;18.69;40.37
67275;DHT22;55463;52.324;5.122;2023-04-05T09:20:21;19.12;41.46
67275;DHT22;55463;52.324;5.122;2023-04-05T09:22:47;19.74;42.76
67275;DHT22;55463;52.324;5.122;2023-04-05T09:27:58;20.20;39.36
67275;DHT22;55463;52.324;5.122;2023-04-05T09:30:24;20.51;40.15
67275;DHT22;55463;52.324;5.122;2023-04-05T09:32:53;20.35;39.68
67275;DHT22;55463;52.324;5.122;2023-04-05T09:35:20;20.83;36.94
67275;DHT22;55463;52.324;5.122;2023-04-05T09:38:00;19.94;35.45
67275;DHT22;55463;52.324;5.122;2023-04-05T09:40:45;20.46;36.88
67275;DHT22;55463;52.324;5.122;2023-04-05T09:43:13;20.48;34.80
67275;DHT22;55463;52.324;5.122;2023-04-05T09:45:57;20.43;34.55
67275;DHT22;55463;52.324;5.122;2023-04-05T09:48:46;20.36;35.26
67275;DHT22;55463;52.324;5.122;2023-04-05T09:51:13;19.73;36.34
67275;DHT22;55463;52.324;5.122;2023-04-05T09:53:56;19.59;34.56
67275;DHT22;55463;52.324;5.122;2023-04-05T09:56:22;19.94;35.74
67275;DHT22;55463;52.324;5.122;2023-04-05T09:58:50;20.65;35.27
67275;DHT22;55463;52.324;5.122;2023-04-05T10:01:15;20.11;34.27
67275;DHT22;55463;52.324;5.122;2023-04-05T10:03:48;20.21;35.70
67275;DHT22;55463;52.324;5.122;2023-04-05T10:06:16;20.21;34.13
67275;DHT22;55463;52.324;5.122;2023-04-05T10:08:42;20.80;36.51
67275;DHT22;55463;52.324;5.122;2023-04-05T10:11:07;20.17;33.81
67275;DHT22;55463;52.324;5.122;2023-04-05T10:13:35;19.76;35.32
67275;DHT22;55463;52.324;5.122;2023-04-05T10:16:04;20.15;35.25
67275;DHT22;55463;52.324;5.122;2023-04-05T10:18:41;20.48;34.62
67275;DHT22;55463;52.324;5.122;2023-04-05T10:21:10;20.39;33.87
67275;DHT22;55463;52.324;5.122;2023-04-05T10:23:42;20.42;36.35
67275;DHT22;55463;52.324;5.122;2023-04-05T10:26:26;20.66;35.59
67275;DHT22;55463;52.324;5.122;2023-04-05T10:29:00;20.87;35.17
67275;DHT22;55463;52.324;5.122;2023-04-05T10:31:44;20.39;33.42
67275;DHT22;55463;52.324;5.122;2023-04-05T10:34:19;20.70;35.09
67275;DHT22;55463;52.324;5.122;2023-04-05T10:36:54;19.83;33.70
67275;DHT22;55463;52.324;5.122;2023-04-05T10:39:33;20.59;35.34
67275;DHT22;55463;52.324;5.122;2023-04-05T10:42:00;20.46;33.88
67275;DHT22;55463;52.324;5.122;2023-04-05T10:44:29;20.56;34.73
67275;DHT22;55463;52.324;5.122;2023-04-05T10:46:56;20.06;32.55
67275;DHT22;55463;52.324;5.122;2023-04-05T10:49:31;19.98;35.20
67275;DHT22;55463;52.324;5.122;2023-04-05T10:51:59;19.66;36.22
67275;DHT22;55463;52.324;5.122;2023-04-05T10:54:26;19.58;34.61
67275;DHT22;55463;52.324;5.122;2023-04-05T10:56:52;20.79;35.02
67275;DHT22;55463;52.324;5.122;2023-04-05T10:59:19;21.27;35.62
67275;DHT22;55463;52.324;5.122;2023-04-05T11:01:45;21.05;33.08
67275;DHT22;55463;52.324;5.122;2023-04-05T11:04:13;20.97;33.42
67275;DHT22;55463;52.324;5.122;2023-04-05T11:06:40;21.07;32.98
67275;DHT22;55463;52.324;5.122;2023-04-05T11:09:13;20.76;33.91
67275;DHT22;55463;52.324;5.122;2023-04-05T11:11:48;21.42;34.26
67275;DHT22;55463;52.324;5.122;2023-04-05T11:14:35;21.34;34.33
67275;DHT22;55463;52.324;5.122;2023-04-05T11:17:01;20.49;34.02
67275;DHT22;55463;52.324;5.122;2023-04-05T11:20:03;20.90;34.15
67275;DHT22;55463;52.324;5.122;2023-04-05T11:22:29;21.25;34.50
67275;DHT22;55463;52.324;5.122;2023-04-05T11:24:57;21.58;34.11
67275;DHT22;55463;52.324;5.122;2023-04-05T11:27:34;21.22;35.46
67275;DHT22;55463;52.324;5.122;2023-04-05T11:30:03;21.21;34.26
67275;DHT22;55463;52.324;5.122;2023-04-05T11:32:42;20.70;33.76
67275;DHT22;55463;52.324;5.122;2023-04-05T11:35:18;21.37;34.80
67275;DHT22;55463;52.324;5.122;2023-04-05T11:38:05;20.87;34.30
67275;DHT22;55463;52.324;5.122;2023-04-05T11:40:36;20.46;34.29
67275;DHT22;55463;52.324;5.122;2023-04-05T11:43:10;21.05;34.53
67275;DHT22;55463;52.324;5.122;2023-04-05T11:45:37;21.10;33.46
67275;DHT22;55463;52.324;5.122;2023-04-05T11:48:07;21.31;33.76
67275;DHT22;55463;52.324;5.122;2023-04-05T11:50:34;20.49;34.90
67275;DHT22;55463;52.324;5.122;2023-04-05T11:53:10;21.18;35.73
67275;DHT22;55463;52.324;5.122;2023-04-05T11:55:37;20.96;34.06
67275;DHT22;55463;52.324;5.122;2023-04-05T11:58:14;20.48;33.64
67275;DHT22;55463;52.324;5.122;2023-04-05T12:00:40;20.86;34.78
67275;DHT22;55463;52.324;5.122;2023-04-05T12:03:10;20.75;36.09
67275;DHT22;55463;52.324;5.122;2023-04-05T12:05:52;21.20;36.36
67275;DHT22;55463;52.324;5.122;2023-04-05T12:08:19;21.70;35.82
67275;DHT22;55463;52.324;5.122;2023-04-05T12:10:55;21.92;36.10
67275;DHT22;55463;52.324;5.122;2023-04-05T12:13:25;21.48;35.46
67275;DHT22;55463;52.324;5.122;2023-04-05T12:15:51;20.51;35.27
67275;DHT22;55463;52.324;5.122;2023-04-05T12:18:16;20.59;35.92
67275;DHT22;55463;52.324;5.122;2023-04-05T12:20:42;20.94;36.35
67275;DHT22;55463;52.324;5.122;2023-04-05T12:23:08;21.22;38.56
67275;DHT22;55463;52.324;5.122;2023-04-05T12:25:34;20.00;38.08
67275;DHT22;55463;52.324;5.122;2023-04-05T12:28:03;20.08;39.36
67275;DHT22;55463;52.324;5.122;2023-04-05T12:30:31;20.75;40.43
67275;DHT22;55463;52.324;5.122;2023-04-05T12:33:06;21.17;37.80
67275;DHT22;55463;52.324;5.122;2023-04-05T12:35:35;20.45;38.95
67275;DHT22;55463;52.324;5.122;2023-04-05T12:38:02;20.42;38.14
67275;DHT22;55463;52.324;5.122;2023-04-05T12:40:29;20.59;37.56
67275;DHT22;55463;52.324;5.122;2023-04-05T12:43:01;21.05;38.64
67275;DHT22;55463;52.324;5.122;2023-04-05T12:45:28;20.77;37.62
67275;DHT22;55463;52.324;5.122;2023-04-05T12:47:58;20.87;38.00
67275;DHT22;55463;52.324;5.122;2023-04-05T12:50:29;20.98;37.57
67275;DHT22;55463;52.324;5.122;2023-04-05T12:53:04;20.57;37.73
67275;DHT22;55463;52.324;5.122;2023-04-05T12:55:30;20.51;36.83
67275;DHT22;55463;52.324;5.122;2023-04-05T12:57:58;20.39;35.42
67275;DHT22;55463;52.324;5.122;2023-04-05T13:00:24;20.59;36.60
67275;DHT22;55463;52.324;5.122;2023-04-05T13:02:52;20.91;37.65
67275;DHT22;55463;52.324;5.122;2023-04-05T13:05:26;20.76;35.15
67275;DHT22;55463;52.324;5.122;2023-04-05T13:07:52;20.32;35.23
67275;DHT22;55463;52.324;5.122;2023-04-05T13:10:22;20.52;36.21
67275;DHT22;55463;52.324;5.122;2023-04-05T13:12:47;20.29;37.02
67275;DHT22;55463;52.324;5.122;2023-04-05T13:15:17;19.93;36.19
67275;DHT22;55463;52.324;5.122;2023-04-05T13:17:43;19.83;36.18
67275;DHT22;55463;52.324;5.122;2023-04-05T13:20:10;19.79;36.40
67275;DHT22;55463;52.324;5.122;2023-04-05T13:22:38;20.20;37.44
67275;DHT22;55463;52.324;5.122;2023-04-05T13:25:04;20.32;36.65
67275;DHT22;55463;52.324;5.122;2023-04-05T13:27:29;20.26;36.92
67275;DHT22;55463;52.324;5.122;2023-04-05T13:29:55;19.98;36.27
67275;DHT22;55463;52.324;5.122;2023-04-05T13:32:20;19.12;36.63
67275;DHT22;55463;52.324;5.122;2023-04-05T13:34:46;19.24;37.32
67275;DHT22;55463;52.324;5.122;2023-04-05T13:37:13;19.07;36.98
67275;DHT22;55463;52.324;5.122;2023-04-05T13:39:38;19.22;37.70
67275;DHT22;55463;52.324;5.122;2023-04-05T13:42:04;19.66;39.17
67275;DHT22;55463;52.324;5.122;2023-04-05T13:44:29;19.69;38.21
67275;DHT22;55463;52.324;5.122;2023-04-05T13:46:55;19.53;37.50
67275;DHT22;55463;52.324;5.122;2023-04-05T13:49:21;19.36;38.55
67275;DHT22;55463;52.324;5.122;2023-04-05T13:51:46;19.19;36.37
67275;DHT22;55463;52.324;5.122;2023-04-05T13:54:11;19.00;36.48
67275;DHT22;55463;52.324;5.122;2023-04-05T13:56:37;18.83;37.00
67275;DHT22;55463;52.324;5.122;2023-04-05T13:59:02;19.22;37.48
67275;DHT22;55463;52.324;5.122;2023-04-05T14:01:28;19.19;36.82
67275;DHT22;55463;52.324;5.122;2023-04-05T14:03:53;19.31;37.21
67275;DHT22;55463;52.324;5.122;2023-04-05T14:06:19;18.74;36.14
67275;DHT22;55463;52.324;5.122;2023-04-05T14:08:44;18.87;38.06
67275;DHT22;55463;52.324;5.122;2023-04-05T14:11:10;18.94;37.14
67275;DHT22;55463;52.324;5.122;2023-04-05T14:13:35;19.25;40.37
67275;DHT22;55463;52.324;5.122;2023-04-05T14:16:01;19.48;37.36
67275;DHT22;55463;52.324;5.122;2023-04-05T14:18:26;19.61;39.13
67275;DHT22;55463;52.324;5.122;2023-04-05T14:20:52;19.66;38.92
67275;DHT22;55463;52.324;5.122;2023-04-05T14:23:17;19.84;37.76
67275;DHT22;55463;52.324;5.122;2023-04-05T14:25:42;19.94;36.13
67275;DHT22;55463;52.324;5.122;2023-04-05T14:28:08;19.84;36.24
67275;DHT22;55463;52.324;5.122;2023-04-05T14:30:33;19.45;35.82
67275;DHT22;55463;52.324;5.122;2023-04-05T14:32:59;19.32;35.02
67275;DHT22;55463;52.324;5.122;2023-04-05T14:35:24;19.12;37.02
67275;DHT22;55463;52.324;5.122;2023-04-05T14:37:50;18.90;37.23
67275;DHT22;55463;52.324;5.122;2023-04-05T14:40:15;19.29;38.19
67275;DHT22;55463;52.324;5.122;2023-04-05T14:42:40;19.46;38.13
67275;DHT22;55463;52.324;5.122;2023-04-05T14:45:08;19.53;37.79
67275;DHT22;55463;52.324;5.122;2023-04-05T14:47:34;19.38;38.88
67275;DHT22;55463;52.324;5.122;2023-04-05T14:49:59;19.26;38.81
67275;DHT22;55463;52.324;5.122;2023-04-05T14:52:24;19.08;37.85
67275;DHT22;55463;52.324;5.122;2023-04-05T14:54:53;18.94;38.07
67275;DHT22;55463;52.324;5.122;2023-04-05T14:57:18;18.87;39.79
67275;DHT22;55463;52.324;5.122;2023-04-05T14:59:44;18.96;40.15
67275;DHT22;55463;52.324;5.122;2023-04-05T15:02:09;18.70;40.40
67275;DHT22;55463;52.324;5.122;2023-04-05T15:04:35;18.48;39.08
67275;DHT22;55463;52.324;5.122;2023-04-05T15:07:00;18.48;38.50
67275;DHT22;55463;52.324;5.122;2023-04-05T15:09:26;18.34;38.16
67275;DHT22;55463;52.324;5.122;2023-04-05T15:11:51;18.36;39.63
67275;DHT22;55463;52.324;5.122;2023-04-05T15:14:17;18.08;39.82
67275;DHT22;55463;52.324;5.122;2023-04-05T15:16:42;17.89;40.22
67275;DHT22;55463;52.324;5.122;2023-04-05T15:19:08;17.50;39.38
67275;DHT22;55463;52.324;5.122;2023-04-05T15:21:33;17.50;40.39
67275;DHT22;55463;52.324;5.122;2023-04-05T15:23:59;17.27;40.01
67275;DHT22;55463;52.324;5.122;2023-04-05T15:26:26;17.14;41.21
67275;DHT22;55463;52.324;5.122;2023-04-05T15:28:51;16.94;40.76
67275;DHT22;55463;52.324;5.122;2023-04-05T15:31:17;17.07;41.34
67275;DHT22;55463;52.324;5.122;2023-04-05T15:33:42;16.88;40.19
67275;DHT22;55463;52.324;5.122;2023-04-05T15:36:08;17.01;40.41
67275;DHT22;55463;52.324;5.122;2023-04-05T15:38:33;16.99;42.88
67275;DHT22;55463;52.324;5.122;2023-04-05T15:40:59;16.83;39.85
67275;DHT22;55463;52.324;5.122;2023-04-05T15:43:24;16.70;42.61
67275;DHT22;55463;52.324;5.122;2023-04-05T15:45:49;16.59;40.59
67275;DHT22;55463;52.324;5.122;2023-04-05T15:48:15;16.66;40.92
67275;DHT22;55463;52.324;5.122;2023-04-05T15:50:41;16.69;40.83
67275;DHT22;55463;52.324;5.122;2023-04-05T15:53:07;16.39;40.52